createdAt,value
2022-08-26T00:01:41.525Z,101624.81
2022-08-26T00:04:12.172Z,101626.38
2022-08-26T00:06:42.537Z,101637.16
2022-08-26T00:09:16.110Z,101639.66
2022-08-26T00:11:44.288Z,101645.13
2022-08-26T00:14:11.450Z,101658.16
2022-08-26T00:16:41.039Z,101657.31
2022-08-26T00:19:13.823Z,101671.66
2022-08-26T00:21:41.301Z,101673.41
2022-08-26T00:24:07.762Z,101686.38
2022-08-26T00:26:34.853Z,101692.69
2022-08-26T00:29:01.484Z,101695.16
2022-08-26T00:31:28.366Z,101692.47
2022-08-26T00:33:58.168Z,101709.84
2022-08-26T00:36:24.891Z,101711.84
2022-08-26T00:38:57.343Z,101722.63
2022-08-26T00:41:23.914Z,101710.38
2022-08-26T00:43:51.376Z,101717.22
2022-08-26T00:46:29.103Z,101727.78
2022-08-26T00:49:03.111Z,101720.63
2022-08-26T00:51:31.436Z,101724.06
2022-08-26T00:54:04.014Z,101724.91
2022-08-26T00:56:38.145Z,101727.25
2022-08-26T00:59:09.095Z,101730.19
2022-08-26T01:01:38.009Z,101730.34
2022-08-26T01:04:05.836Z,101754.13
2022-08-26T01:06:32.420Z,101802.84
2022-08-26T01:08:59.163Z,101845.75
2022-08-26T01:11:26.160Z,101861.66
2022-08-26T01:13:59.388Z,101993.84
2022-08-26T01:16:26.698Z,102005.09
2022-08-26T01:18:58.528Z,102005.59
2022-08-26T01:22:09.978Z,102012.00
2022-08-26T01:24:38.536Z,102014.34
2022-08-26T01:27:08.097Z,102030.75
2022-08-26T01:29:39.132Z,102034.66
2022-08-26T01:32:08.871Z,102039.72
2022-08-26T01:34:37.429Z,102044.09
2022-08-26T01:37:14.186Z,102046.38
2022-08-26T01:39:43.270Z,102047.66
2022-08-26T01:42:14.604Z,102033.63
2022-08-26T01:45:12.509Z,102039.53
2022-08-26T01:47:40.197Z,102042.34
2022-08-26T01:50:13.104Z,102028.13
2022-08-26T01:52:51.654Z,102037.31
2022-08-26T01:55:32.012Z,102039.25
2022-08-26T01:58:07.963Z,102037.16
2022-08-26T02:00:35.407Z,102043.16
2022-08-26T02:03:17.276Z,102046.56
2022-08-26T02:05:56.975Z,102050.94
2022-08-26T02:08:46.880Z,102055.63
2022-08-26T02:11:13.864Z,102055.41
2022-08-26T02:13:45.044Z,102055.63
2022-08-26T02:16:13.145Z,102048.53
2022-08-26T02:18:43.449Z,102049.59
2022-08-26T02:21:10.993Z,102058.06
2022-08-26T02:23:39.160Z,102055.59
2022-08-26T02:26:18.000Z,102054.09
2022-08-26T02:28:58.615Z,102053.38
2022-08-26T02:31:25.495Z,102046.88
2022-08-26T02:33:51.986Z,102051.19
2022-08-26T02:36:21.208Z,102040.19
2022-08-26T02:38:47.847Z,102045.81
2022-08-26T02:41:14.797Z,102046.28
2022-08-26T02:43:41.315Z,102048.97
2022-08-26T02:46:08.009Z,102048.63
2022-08-26T02:48:35.452Z,102051.41
2022-08-26T02:51:02.712Z,102049.00
2022-08-26T02:53:32.051Z,102056.22
2022-08-26T02:56:02.362Z,102065.34
2022-08-26T02:58:29.843Z,102059.25
2022-08-26T03:00:56.404Z,102057.63
2022-08-26T03:03:23.661Z,102060.06
2022-08-26T03:05:50.892Z,102060.41
2022-08-26T03:08:17.410Z,102066.28
2022-08-26T03:10:44.089Z,102064.19
2022-08-26T03:13:10.617Z,102063.88
2022-08-26T03:15:37.280Z,102069.13
2022-08-26T03:18:04.793Z,102069.13
2022-08-26T03:20:31.618Z,102070.63
2022-08-26T03:22:58.247Z,102072.59
2022-08-26T03:25:25.813Z,102072.34
2022-08-26T03:27:53.043Z,102082.13
2022-08-26T03:30:44.756Z,102092.38
2022-08-26T03:33:13.181Z,102088.94
2022-08-26T03:35:42.766Z,102115.28
2022-08-26T03:38:09.516Z,102111.19
2022-08-26T03:40:39.172Z,102123.00
2022-08-26T03:43:07.310Z,102125.06
2022-08-26T03:45:36.927Z,102142.41
2022-08-26T03:48:04.076Z,102116.19
2022-08-26T03:50:31.050Z,102120.81
2022-08-26T03:53:02.043Z,102123.50
2022-08-26T03:55:31.990Z,102133.75
2022-08-26T03:57:59.951Z,102117.81
2022-08-26T04:00:26.985Z,102124.16
2022-08-26T04:02:53.680Z,102136.53
2022-08-26T04:05:21.694Z,102132.47
2022-08-26T04:07:49.286Z,102146.06
2022-08-26T04:10:28.458Z,102148.88
2022-08-26T04:12:55.619Z,102157.81
2022-08-26T04:15:25.669Z,102170.56
2022-08-26T04:17:52.512Z,102176.25
2022-08-26T04:20:19.521Z,102185.63
2022-08-26T04:22:46.164Z,102185.53
2022-08-26T04:25:13.608Z,102198.53
2022-08-26T04:27:40.259Z,102197.75
2022-08-26T04:30:08.573Z,102209.59
2022-08-26T04:32:36.160Z,102217.75
2022-08-26T04:35:04.674Z,102221.38
2022-08-26T04:37:31.303Z,102230.22
2022-08-26T04:39:59.295Z,102227.09
2022-08-26T04:42:26.177Z,102239.69
2022-08-26T04:44:52.941Z,102232.16
2022-08-26T04:47:19.451Z,102273.44
2022-08-26T04:49:45.919Z,102269.78
2022-08-26T04:52:12.623Z,102259.03
2022-08-26T04:54:39.148Z,102246.97
2022-08-26T04:57:08.588Z,102230.63
2022-08-26T04:59:38.973Z,102202.66
2022-08-26T05:02:06.957Z,102197.09
2022-08-26T05:04:34.340Z,102184.69
2022-08-26T05:07:02.681Z,102179.00
2022-08-26T05:09:29.832Z,102162.41
2022-08-26T05:11:57.132Z,102138.72
2022-08-26T05:14:24.013Z,102129.94
2022-08-26T05:16:51.150Z,102129.00
2022-08-26T05:19:19.011Z,102121.00
2022-08-26T05:21:47.164Z,102117.47
2022-08-26T05:24:14.091Z,102115.16
2022-08-26T05:26:40.577Z,102119.63
2022-08-26T05:29:07.737Z,102112.19
2022-08-26T05:31:34.759Z,102114.28
2022-08-26T05:34:04.663Z,102121.13
2022-08-26T05:36:34.369Z,102127.03
2022-08-26T05:39:04.036Z,102138.91
2022-08-26T05:41:34.171Z,102144.72
2022-08-26T05:44:05.368Z,102156.69
2022-08-26T05:46:31.900Z,102179.38
2022-08-26T05:48:58.848Z,102197.38
2022-08-26T05:51:26.255Z,102234.13
2022-08-26T05:53:54.663Z,102247.88
2022-08-26T05:56:24.753Z,102227.50
2022-08-26T05:58:51.852Z,102210.94
2022-08-26T06:01:21.628Z,102168.09
2022-08-26T06:03:52.376Z,102122.63
2022-08-26T06:06:27.439Z,102097.34
2022-08-26T06:08:59.381Z,102090.72
2022-08-26T06:11:28.407Z,102109.69
2022-08-26T06:13:58.975Z,102111.88
2022-08-26T06:16:28.612Z,102102.94
2022-08-26T06:18:55.283Z,102102.97
2022-08-26T06:21:25.852Z,102080.47
2022-08-26T06:24:13.340Z,102051.88
2022-08-26T06:26:42.779Z,101998.50
2022-08-26T06:29:09.481Z,101970.97
2022-08-26T06:31:36.904Z,101947.06
2022-08-26T06:34:09.910Z,101917.63
2022-08-26T06:36:39.284Z,101904.09
2022-08-26T06:39:09.381Z,101885.47
2022-08-26T06:41:41.411Z,101877.53
2022-08-26T06:44:10.137Z,101875.94
2022-08-26T06:46:37.831Z,101874.91
2022-08-26T06:49:05.509Z,101873.91
2022-08-26T06:51:34.788Z,101866.38
2022-08-26T06:54:02.273Z,101858.56
2022-08-26T06:56:34.592Z,101856.13
2022-08-26T06:59:01.908Z,101858.28
2022-08-26T07:01:31.067Z,101862.69
2022-08-26T07:04:00.371Z,101842.25
2022-08-26T07:06:28.229Z,101842.97
2022-08-26T07:09:01.635Z,101852.47
2022-08-26T07:11:31.473Z,101837.69
2022-08-26T07:13:59.039Z,101826.28
2022-08-26T07:16:28.846Z,101813.16
2022-08-26T07:18:56.385Z,101795.19
2022-08-26T07:21:24.524Z,101785.72
2022-08-26T07:23:53.931Z,101776.03
2022-08-26T07:26:26.294Z,101756.13
2022-08-26T07:28:56.002Z,101741.25
2022-08-26T07:31:25.363Z,101726.69
2022-08-26T07:33:52.179Z,101695.00
2022-08-26T07:36:20.444Z,101667.53
2022-08-26T07:38:48.156Z,101650.53
2022-08-26T07:41:15.747Z,101642.53
2022-08-26T07:43:43.515Z,101614.22
2022-08-26T07:46:16.261Z,101612.06
2022-08-26T07:48:46.000Z,101589.25
2022-08-26T07:51:15.308Z,101582.22
2022-08-26T07:53:47.974Z,101558.47
2022-08-26T07:56:18.896Z,101547.91
2022-08-26T07:58:48.994Z,101540.97
2022-08-26T08:01:17.965Z,101543.31
2022-08-26T08:03:45.300Z,101530.91
2022-08-26T08:06:11.786Z,101503.00
2022-08-26T08:08:40.721Z,101493.50
2022-08-26T08:11:07.495Z,101484.34
2022-08-26T08:13:37.692Z,101496.22
2022-08-26T08:16:05.296Z,101481.84
2022-08-26T08:18:31.972Z,101477.44
2022-08-26T08:21:21.458Z,101481.22
2022-08-26T08:23:48.416Z,101477.69
2022-08-26T08:26:15.404Z,101473.81
2022-08-26T08:28:43.602Z,101475.19
2022-08-26T08:31:21.585Z,101471.00
2022-08-26T08:33:59.755Z,101471.22
2022-08-26T08:36:26.226Z,101470.22
2022-08-26T08:39:02.326Z,101470.59
2022-08-26T08:41:41.161Z,101472.28
2022-08-26T08:44:13.896Z,101471.38
2022-08-26T08:46:42.426Z,101465.59
2022-08-26T08:49:10.752Z,101463.16
2022-08-26T08:52:00.378Z,101461.94
2022-08-26T08:54:27.067Z,101470.63
2022-08-26T08:57:06.679Z,101470.41
2022-08-26T08:59:38.434Z,101467.63
2022-08-26T09:02:20.775Z,101470.97
2022-08-26T09:05:08.882Z,101462.72
2022-08-26T09:08:06.741Z,101455.31
2022-08-26T09:10:43.463Z,101446.91
2022-08-26T09:13:16.858Z,101458.66
2022-08-26T09:16:10.101Z,101447.41
2022-08-26T09:18:58.677Z,101438.81
2022-08-26T09:21:25.942Z,101421.56
2022-08-26T09:23:55.616Z,101413.28
2022-08-26T09:26:38.625Z,101416.03
2022-08-26T09:29:13.673Z,101407.75
2022-08-26T09:31:41.059Z,101405.09
2022-08-26T09:34:25.504Z,101383.22
2022-08-26T09:36:57.518Z,101399.25
2022-08-26T09:39:26.705Z,101393.69
2022-08-26T09:42:09.559Z,101387.72
2022-08-26T09:44:59.352Z,101369.38
2022-08-26T09:47:31.980Z,101364.06
2022-08-26T09:50:09.618Z,101358.91
2022-08-26T09:52:36.681Z,101350.69
2022-08-26T09:55:09.707Z,101351.97
2022-08-26T09:57:46.217Z,101352.78
2022-08-26T10:00:34.948Z,101353.47
2022-08-26T10:03:10.785Z,101361.31
2022-08-26T10:05:40.327Z,101366.16
2022-08-26T10:08:38.342Z,101356.63
2022-08-26T10:11:28.575Z,101364.41
2022-08-26T10:14:02.352Z,101353.22
2022-08-26T10:16:39.831Z,101365.50
2022-08-26T10:19:11.559Z,101355.72
2022-08-26T10:21:56.048Z,101365.19
2022-08-26T10:24:31.217Z,101374.91
2022-08-26T10:27:25.687Z,101380.44
2022-08-26T10:30:00.294Z,101374.66
2022-08-26T10:32:35.241Z,101388.50
2022-08-26T10:35:11.318Z,101476.47
2022-08-26T10:37:54.641Z,101567.94
2022-08-26T10:41:03.273Z,101612.03
2022-08-26T10:43:42.443Z,101623.31
2022-08-26T10:46:14.762Z,101629.56
2022-08-26T10:48:46.649Z,101630.13
2022-08-26T10:51:16.816Z,101626.59
2022-08-26T10:53:56.144Z,101625.22
2022-08-26T10:56:56.697Z,101615.16
2022-08-26T10:59:43.659Z,101606.94
2022-08-26T11:02:38.943Z,101614.63
2022-08-26T11:05:18.538Z,101617.25
2022-08-26T11:07:54.958Z,101616.09
2022-08-26T11:10:21.433Z,101617.75
2022-08-26T11:12:54.465Z,101612.31
2022-08-26T11:15:24.579Z,101599.44
2022-08-26T11:17:51.389Z,101603.13
2022-08-26T11:20:31.003Z,101600.84
2022-08-26T11:23:23.094Z,101599.59
2022-08-26T11:25:56.181Z,101592.75
2022-08-26T11:28:48.362Z,101587.88
2022-08-26T11:31:24.013Z,101571.53
2022-08-26T11:33:54.125Z,101582.19
2022-08-26T11:36:37.687Z,101573.94
2022-08-26T11:39:19.405Z,101570.00
2022-08-26T11:41:48.736Z,101561.22
2022-08-26T11:44:22.437Z,101543.38
2022-08-26T11:47:11.429Z,101551.94
2022-08-26T11:49:38.338Z,101533.88
2022-08-26T11:52:17.547Z,101521.50
2022-08-26T11:55:09.347Z,101505.16
2022-08-26T11:57:43.169Z,101488.56
2022-08-26T12:00:15.024Z,101476.44
2022-08-26T12:02:47.434Z,101480.72
2022-08-26T12:05:30.805Z,101485.00
2022-08-26T12:08:02.963Z,101480.28
2022-08-26T12:10:33.603Z,101464.00
2022-08-26T12:13:02.591Z,101420.41
2022-08-26T12:15:31.354Z,101344.09
2022-08-26T12:18:00.290Z,101291.25
2022-08-26T12:21:08.144Z,101290.78
2022-08-26T12:23:34.977Z,101268.72
2022-08-26T12:26:10.417Z,101276.22
2022-08-26T12:28:54.930Z,101264.97
2022-08-26T12:31:48.110Z,101255.56
2022-08-26T12:34:18.119Z,101244.00
2022-08-26T12:36:52.903Z,101275.56
2022-08-26T12:39:29.619Z,101275.00
2022-08-26T12:42:01.906Z,101275.84
2022-08-26T12:44:53.145Z,101276.66
2022-08-26T12:47:42.028Z,101264.16
2022-08-26T12:50:26.299Z,101263.94
2022-08-26T12:52:58.655Z,101266.19
2022-08-26T12:55:41.383Z,101253.72
2022-08-26T12:58:36.467Z,101251.69
2022-08-26T13:01:06.574Z,101222.69
2022-08-26T13:03:45.452Z,101211.44
2022-08-26T13:06:15.628Z,101214.19
2022-08-26T13:08:58.990Z,101198.38
2022-08-26T13:11:27.272Z,101201.44
2022-08-26T13:14:03.415Z,101201.03
2022-08-26T13:16:34.920Z,101207.16
2022-08-26T13:19:10.442Z,101194.28
2022-08-26T13:21:48.009Z,101194.31
2022-08-26T13:24:17.872Z,101199.63
2022-08-26T13:26:46.469Z,101207.69
2022-08-26T13:29:13.287Z,101208.63
2022-08-26T13:31:42.258Z,101203.16
2022-08-26T13:34:11.929Z,101208.34
2022-08-26T13:36:39.112Z,101222.22
2022-08-26T13:39:06.356Z,101210.25
2022-08-26T13:41:33.189Z,101214.38
2022-08-26T13:43:59.854Z,101213.44
2022-08-26T13:46:27.921Z,101219.72
2022-08-26T13:48:55.232Z,101217.84
2022-08-26T13:51:22.850Z,101219.56
2022-08-26T13:53:50.567Z,101228.50
2022-08-26T13:56:18.674Z,101246.63
2022-08-26T13:58:46.192Z,101349.09
2022-08-26T14:01:13.453Z,101370.59
2022-08-26T14:03:40.050Z,101336.09
2022-08-26T14:06:06.627Z,101280.47
2022-08-26T14:08:33.133Z,101233.78
2022-08-26T14:10:59.930Z,101149.19
2022-08-26T14:13:26.702Z,101029.66
2022-08-26T14:15:53.576Z,100994.59
2022-08-26T14:18:26.436Z,100959.59
2022-08-26T14:20:55.091Z,100815.53
2022-08-26T14:23:22.546Z,100805.22
2022-08-26T14:25:49.222Z,100959.34
2022-08-26T14:28:15.872Z,101019.47
2022-08-26T14:30:44.232Z,101006.59
2022-08-26T14:33:13.405Z,100973.56
2022-08-26T14:35:40.489Z,101072.56
2022-08-26T14:38:14.874Z,101152.28
2022-08-26T14:40:44.588Z,101164.44
2022-08-26T14:43:15.155Z,101190.31
2022-08-26T14:45:43.846Z,101230.63
2022-08-26T14:48:10.826Z,101234.38
2022-08-26T14:50:37.324Z,101263.50
2022-08-26T14:53:22.425Z,101314.66
2022-08-26T14:55:50.399Z,101329.56
2022-08-26T14:58:17.037Z,101326.59
2022-08-26T15:00:43.872Z,101368.69
2022-08-26T15:03:10.472Z,101363.50
2022-08-26T15:05:37.142Z,101394.91
2022-08-26T15:08:10.139Z,101430.69
2022-08-26T15:10:37.325Z,101412.59
2022-08-26T15:13:04.096Z,101388.53
2022-08-26T15:15:30.854Z,101409.19
2022-08-26T15:17:58.086Z,101396.03
2022-08-26T15:20:24.785Z,101357.44
2022-08-26T15:22:51.431Z,101379.34
2022-08-26T15:25:19.968Z,101425.28
2022-08-26T15:27:46.440Z,101380.31
2022-08-26T15:30:13.408Z,101354.53
2022-08-26T15:32:39.927Z,101290.50
2022-08-26T15:35:09.272Z,101237.25
2022-08-26T15:37:36.450Z,101325.28
2022-08-26T15:40:04.027Z,101374.06
2022-08-26T15:42:30.678Z,101392.09
2022-08-26T15:44:57.171Z,101420.59
2022-08-26T15:47:23.881Z,101448.13
2022-08-26T15:49:50.336Z,101477.03
2022-08-26T15:52:17.505Z,101469.47
2022-08-26T15:54:44.335Z,101496.81
2022-08-26T15:57:12.400Z,101499.53
2022-08-26T15:59:40.315Z,101505.13
2022-08-26T16:02:07.415Z,101513.06
2022-08-26T16:04:34.026Z,101518.00
2022-08-26T16:07:01.128Z,101532.16
2022-08-26T16:09:30.137Z,101503.81
2022-08-26T16:11:57.374Z,101471.25
2022-08-26T16:14:25.083Z,101410.69
2022-08-26T16:16:51.586Z,101348.78
2022-08-26T16:19:18.127Z,101278.66
2022-08-26T16:21:45.004Z,101221.91
2022-08-26T16:24:11.928Z,101153.09
2022-08-26T16:26:42.187Z,101136.91
2022-08-26T16:29:11.331Z,101170.63
2022-08-26T16:31:38.246Z,101181.88
2022-08-26T16:34:06.516Z,101185.34
2022-08-26T16:36:33.637Z,101186.34
2022-08-26T16:39:00.337Z,101194.22
2022-08-26T16:41:29.496Z,101194.69
2022-08-26T16:43:56.693Z,101207.00
2022-08-26T16:46:26.241Z,101201.31
2022-08-26T16:48:54.931Z,101193.25
2022-08-26T16:51:23.099Z,101204.34
2022-08-26T16:53:50.217Z,101204.91
2022-08-26T16:56:20.682Z,101192.13
2022-08-26T16:58:48.478Z,101198.88
2022-08-26T17:01:16.456Z,101209.63
2022-08-26T17:03:43.304Z,101220.72
2022-08-26T17:06:10.146Z,101238.13
2022-08-26T17:08:41.181Z,101241.81
2022-08-26T17:11:08.328Z,101235.75
2022-08-26T17:13:36.181Z,101220.63
2022-08-26T17:16:05.213Z,101204.03
2022-08-26T17:18:33.314Z,101205.25
2022-08-26T17:21:04.889Z,101213.91
2022-08-26T17:23:32.177Z,101208.03
2022-08-26T17:25:58.653Z,101209.97
2022-08-26T17:28:25.122Z,101221.34
2022-08-26T17:30:51.686Z,101216.69
2022-08-26T17:33:24.485Z,101211.19
2022-08-26T17:35:53.585Z,101214.06
2022-08-26T17:38:21.184Z,101219.41
2022-08-26T17:40:49.073Z,101232.53
2022-08-26T17:43:15.847Z,101229.91
2022-08-26T17:45:43.326Z,101217.44
2022-08-26T17:48:11.068Z,101233.16
2022-08-26T17:50:39.932Z,101238.75
2022-08-26T17:53:06.568Z,101237.91
2022-08-26T17:55:33.127Z,101241.28
2022-08-26T17:58:00.033Z,101242.28
2022-08-26T18:00:30.459Z,101240.22
2022-08-26T18:02:57.026Z,101242.53
2022-08-26T18:05:24.524Z,101233.72
2022-08-26T18:07:51.432Z,101232.56
2022-08-26T18:10:19.803Z,101245.63
2022-08-26T18:12:46.793Z,101237.22
2022-08-26T18:15:15.348Z,101231.56
2022-08-26T18:17:42.194Z,101242.75
2022-08-26T18:20:11.563Z,101253.06
2022-08-26T18:22:38.067Z,101254.41
2022-08-26T18:25:05.980Z,101258.13
2022-08-26T18:27:32.496Z,101264.41
2022-08-26T18:29:59.260Z,101278.22
2022-08-26T18:32:25.766Z,101314.47
2022-08-26T18:34:52.298Z,101321.59
2022-08-26T18:37:18.793Z,101333.63
2022-08-26T18:39:45.285Z,101358.03
2022-08-26T18:42:11.811Z,101361.50
2022-08-26T18:44:38.339Z,101370.19
2022-08-26T18:47:04.964Z,101381.50
2022-08-26T18:49:31.694Z,101394.84
2022-08-26T18:51:58.192Z,101658.59
2022-08-26T18:54:24.645Z,101703.03
2022-08-26T18:56:51.784Z,101728.31
2022-08-26T18:59:18.361Z,101734.41
2022-08-26T19:01:45.404Z,101772.16
2022-08-26T19:04:15.610Z,101796.19
2022-08-26T19:06:43.201Z,101805.09
2022-08-26T19:09:12.003Z,101826.44
2022-08-26T19:11:42.306Z,101842.41
2022-08-26T19:14:15.684Z,101855.31
2022-08-26T19:16:44.867Z,101857.50
2022-08-26T19:19:11.954Z,101860.56
2022-08-26T19:21:39.203Z,101862.03
2022-08-26T19:24:09.385Z,101877.28
2022-08-26T19:26:36.631Z,101884.47
2022-08-26T19:29:03.421Z,101896.13
2022-08-26T19:31:30.145Z,101901.28
2022-08-26T19:33:57.985Z,101903.94
2022-08-26T19:36:25.888Z,101910.22
2022-08-26T19:38:53.003Z,101902.97
2022-08-26T19:41:25.529Z,101910.53
2022-08-26T19:43:58.687Z,101919.13
2022-08-26T19:46:26.487Z,101935.47
2022-08-26T19:48:55.712Z,101940.09
2022-08-26T19:51:25.402Z,101940.25
2022-08-26T19:53:54.440Z,101943.22
2022-08-26T19:56:22.466Z,101948.72
2022-08-26T19:58:50.172Z,101940.53
2022-08-26T20:01:17.805Z,101960.63
2022-08-26T20:03:45.207Z,101996.19
2022-08-26T20:06:14.512Z,102006.75
2022-08-26T20:08:42.096Z,101989.13
2022-08-26T20:11:12.213Z,101995.97
2022-08-26T20:13:39.636Z,101999.91
2022-08-26T20:16:06.515Z,102006.53
2022-08-26T20:18:51.694Z,102002.41
2022-08-26T20:21:27.180Z,102005.75
2022-08-26T20:23:55.178Z,101999.97
2022-08-26T20:26:22.045Z,102001.34
2022-08-26T20:28:50.936Z,102002.84
2022-08-26T20:31:19.344Z,102001.75
2022-08-26T20:33:46.827Z,102001.75
2022-08-26T20:36:15.128Z,102012.19
2022-08-26T20:38:41.750Z,101981.84
2022-08-26T20:41:08.256Z,101976.66
2022-08-26T20:43:34.833Z,101981.34
2022-08-26T20:46:01.542Z,101980.13
2022-08-26T20:48:28.192Z,101989.91
2022-08-26T20:51:01.972Z,101978.88
2022-08-26T20:53:29.449Z,101979.47
2022-08-26T20:56:03.785Z,101983.16
2022-08-26T20:58:31.204Z,101996.03
2022-08-26T21:00:58.446Z,102005.78
2022-08-26T21:03:25.009Z,102008.91
2022-08-26T21:05:52.231Z,102009.34
2022-08-26T21:08:18.794Z,102009.91
2022-08-26T21:10:46.108Z,102006.53
2022-08-26T21:13:13.253Z,102006.25
2022-08-26T21:15:39.792Z,102021.22
2022-08-26T21:18:06.426Z,102018.28
2022-08-26T21:20:33.126Z,102028.31
2022-08-26T21:22:59.731Z,102035.88
2022-08-26T21:25:26.507Z,102038.13
2022-08-26T21:27:53.019Z,102036.66
2022-08-26T21:30:19.599Z,102051.72
2022-08-26T21:32:46.110Z,102056.63
2022-08-26T21:35:12.722Z,102058.94
2022-08-26T21:37:39.561Z,102069.84
2022-08-26T21:40:07.899Z,102069.22
2022-08-26T21:42:35.229Z,102079.28
2022-08-26T21:45:02.843Z,102083.94
2022-08-26T21:47:32.607Z,102075.56
2022-08-26T21:49:59.287Z,102082.56
2022-08-26T21:52:26.430Z,102084.13
2022-08-26T21:55:00.320Z,102092.28
2022-08-26T21:57:28.165Z,102082.63
2022-08-26T21:59:55.655Z,102095.84
2022-08-26T22:02:22.697Z,102084.53
2022-08-26T22:04:49.475Z,102077.13
2022-08-26T22:07:17.934Z,102075.66
2022-08-26T22:09:44.839Z,102073.34
2022-08-26T22:12:12.156Z,102068.19
2022-08-26T22:14:39.629Z,102064.31
2022-08-26T22:17:06.453Z,102055.31
2022-08-26T22:19:34.078Z,102039.13
2022-08-26T22:22:13.076Z,102028.56
2022-08-26T22:24:39.927Z,102003.22
2022-08-26T22:27:06.808Z,101999.81
2022-08-26T22:29:33.333Z,102004.72
2022-08-26T22:32:01.133Z,102002.88
2022-08-26T22:34:28.057Z,102001.56
2022-08-26T22:36:54.926Z,101997.34
2022-08-26T22:39:23.478Z,101991.28
2022-08-26T22:41:51.176Z,101988.75
2022-08-26T22:44:19.207Z,101983.47
2022-08-26T22:46:47.193Z,101986.47
2022-08-26T22:49:17.083Z,101980.56
2022-08-26T22:51:45.656Z,101982.00
2022-08-26T22:54:12.575Z,101982.03
2022-08-26T22:56:39.610Z,101974.66
2022-08-26T22:59:07.946Z,101976.38
2022-08-26T23:01:39.918Z,101970.22
2022-08-26T23:04:08.252Z,101977.88
2022-08-26T23:06:36.828Z,101966.69
2022-08-26T23:09:04.019Z,101963.47
2022-08-26T23:11:30.488Z,101974.94
2022-08-26T23:13:56.980Z,101970.13
2022-08-26T23:16:23.553Z,101963.28
2022-08-26T23:18:50.369Z,101963.28
2022-08-26T23:21:16.868Z,101973.97
2022-08-26T23:23:45.031Z,101968.00
2022-08-26T23:26:15.570Z,101974.81
2022-08-26T23:28:44.331Z,101969.81
2022-08-26T23:31:11.230Z,101965.16
2022-08-26T23:33:56.272Z,101971.47
2022-08-26T23:36:25.157Z,101967.56
2022-08-26T23:38:52.697Z,101970.03
2022-08-26T23:41:22.067Z,101968.06
2022-08-26T23:43:49.111Z,101967.13
2022-08-26T23:46:15.688Z,101967.13
2022-08-26T23:48:42.285Z,101968.16
2022-08-26T23:51:28.255Z,101958.84
2022-08-26T23:53:55.216Z,101959.34
2022-08-26T23:56:21.928Z,101960.34
2022-08-26T23:58:48.396Z,101954.91
